Time;durP1;ratioP1;P1;durP2;ratioP2;P2;SDS_P1;SDS_P2;PMS_P1;PMS_P2;Temp;Humidity;BMP_temperature;BMP_pressure;BME280_temperature;BME280_humidity;BME280_pressure;Samples;Min_cycle;Max_cycle;Signal;HPM_P1;HPM_P2
2021/09/25 00:02:23;;;;;;;;;;;14.70;55.70;;;;;;4327786;33;19967;-37
2021/09/25 00:04:49;;;;;;;;;;;14.70;55.50;;;;;;4327895;33;19975;-35
2021/09/25 00:07:16;;;;;;;;;;;14.80;55.40;;;;;;4327713;33;20076;-35
2021/09/25 00:09:42;;;;;;;;;;;14.80;55.30;;;;;;4328014;33;19963;-38
2021/09/25 00:12:10;;;;;;;;;;;14.80;55.20;;;;;;4328100;33;19968;-37
2021/09/25 00:14:38;;;;;;;;;;;14.90;55.10;;;;;;4328403;33;19990;-37
2021/09/25 00:17:05;;;;;;;;;;;14.90;55.00;;;;;;4327548;33;20087;-37
2021/09/25 00:19:32;;;;;;;;;;;14.90;54.90;;;;;;4327934;33;19991;-37
2021/09/25 00:21:58;;;;;;;;;;;14.90;55.00;;;;;;4327996;33;19994;-38
2021/09/25 00:24:24;;;;;;;;;;;14.90;55.10;;;;;;4315546;33;20001;-37
2021/09/25 00:26:50;;;;;;;;;;;15.00;55.00;;;;;;4327995;33;20436;-37
2021/09/25 00:29:17;;;;;;;;;;;15.00;54.90;;;;;;4330631;33;19975;-37
2021/09/25 00:31:43;;;;;;;;;;;15.00;54.90;;;;;;4345368;33;19981;-37
2021/09/25 00:34:09;;;;;;;;;;;15.10;54.90;;;;;;4344614;33;19963;-37
2021/09/25 00:36:35;;;;;;;;;;;15.20;55.00;;;;;;4344845;33;20037;-36
2021/09/25 00:39:01;;;;;;;;;;;15.20;54.80;;;;;;4344595;33;19962;-37
2021/09/25 00:41:28;;;;;;;;;;;15.30;54.60;;;;;;4330981;33;19967;-37
2021/09/25 00:43:54;;;;;;;;;;;15.30;54.30;;;;;;4344612;33;20407;-38
2021/09/25 00:46:20;;;;;;;;;;;15.30;54.00;;;;;;4344336;33;20469;-37
2021/09/25 00:48:47;;;;;;;;;;;15.30;54.70;;;;;;4353230;32;19955;-37
2021/09/25 00:51:13;;;;;;;;;;;15.30;54.10;;;;;;4359659;32;19978;-37
2021/09/25 00:53:40;;;;;;;;;;;15.40;54.30;;;;;;4359669;32;19958;-37
2021/09/25 00:56:07;;;;;;;;;;;15.40;54.30;;;;;;4359329;32;20030;-37
2021/09/25 00:58:33;;;;;;;;;;;15.40;54.10;;;;;;4345688;32;19990;-38
2021/09/25 01:01:00;;;;;;;;;;;15.40;54.00;;;;;;4345456;32;19982;-37
2021/09/25 01:03:26;;;;;;;;;;;15.30;54.00;;;;;;4359112;32;20012;-38
2021/09/25 01:05:52;;;;;;;;;;;15.30;54.10;;;;;;4359249;32;19990;-38
2021/09/25 01:08:23;;;;;;;;;;;15.30;54.20;;;;;;4359210;32;19981;-37
2021/09/25 01:10:52;;;;;;;;;;;15.40;54.20;;;;;;4358996;32;20054;-37
2021/09/25 01:13:18;;;;;;;;;;;15.40;54.00;;;;;;4345498;32;20000;-38
2021/09/25 01:15:45;;;;;;;;;;;15.40;54.10;;;;;;4359536;32;19979;-38
2021/09/25 01:18:11;;;;;;;;;;;15.50;54.20;;;;;;4359089;32;20411;-38
2021/09/25 01:20:37;;;;;;;;;;;15.50;54.70;;;;;;4358791;32;20435;-37
2021/09/25 01:23:04;;;;;;;;;;;15.50;53.90;;;;;;4359118;32;19970;-37
2021/09/25 01:25:31;;;;;;;;;;;15.60;53.60;;;;;;4359252;32;19966;-38
2021/09/25 01:27:57;;;;;;;;;;;15.60;53.50;;;;;;4344705;32;19983;-37
2021/09/25 01:30:23;;;;;;;;;;;15.70;53.30;;;;;;4359026;32;19989;-37
2021/09/25 01:32:50;;;;;;;;;;;15.70;53.10;;;;;;4359148;32;19967;-38
2021/09/25 01:35:17;;;;;;;;;;;15.70;53.10;;;;;;4359013;32;20002;-37
2021/09/25 01:37:46;;;;;;;;;;;15.70;53.20;;;;;;4359312;32;19990;-37
2021/09/25 01:40:13;;;;;;;;;;;15.70;53.30;;;;;;4358813;32;20497;-37
2021/09/25 01:42:39;;;;;;;;;;;15.70;53.30;;;;;;4358435;32;20407;-38
2021/09/25 01:45:06;;;;;;;;;;;15.70;53.40;;;;;;4358496;32;20024;-37
2021/09/25 01:47:32;;;;;;;;;;;15.70;53.30;;;;;;4358231;32;20024;-37
2021/09/25 01:50:03;;;;;;;;;;;15.70;52.70;;;;;;4343974;33;20422;-37
2021/09/25 01:52:29;;;;;;;;;;;15.70;53.10;;;;;;4343913;33;20366;-37
2021/09/25 01:54:56;;;;;;;;;;;15.70;53.10;;;;;;4343927;33;19976;-37
2021/09/25 01:57:22;;;;;;;;;;;15.60;52.90;;;;;;4343423;33;20020;-37
2021/09/25 01:59:48;;;;;;;;;;;15.70;52.90;;;;;;4296767;33;19975;-37
2021/09/25 02:02:14;;;;;;;;;;;15.70;52.80;;;;;;4297419;33;19983;-37
2021/09/25 02:04:46;;;;;;;;;;;15.70;52.70;;;;;;4285173;33;19981;-37
2021/09/25 02:07:15;;;;;;;;;;;15.70;53.40;;;;;;4297383;33;20432;-37
2021/09/25 02:09:41;;;;;;;;;;;15.70;52.70;;;;;;4297531;33;20029;-37
2021/09/25 02:12:07;;;;;;;;;;;15.70;52.40;;;;;;4297209;33;19964;-38
2021/09/25 02:14:33;;;;;;;;;;;15.80;52.20;;;;;;4297695;33;20123;-37
2021/09/25 02:16:59;;;;;;;;;;;15.70;52.00;;;;;;4296829;33;19972;-38
2021/09/25 02:19:26;;;;;;;;;;;15.70;52.00;;;;;;4297040;33;19966;-37
2021/09/25 02:21:52;;;;;;;;;;;15.70;52.00;;;;;;4297404;33;20006;-37
2021/09/25 02:24:18;;;;;;;;;;;15.70;51.80;;;;;;4297397;33;19968;-38
2021/09/25 02:26:44;;;;;;;;;;;15.80;51.80;;;;;;4297196;33;19992;-37
2021/09/25 02:29:11;;;;;;;;;;;15.80;51.60;;;;;;4297262;33;20066;-37
2021/09/25 02:31:37;;;;;;;;;;;15.90;51.60;;;;;;4335756;33;20042;-38
2021/09/25 02:34:03;;;;;;;;;;;15.90;51.60;;;;;;4343070;33;20001;-38
2021/09/25 02:36:30;;;;;;;;;;;16.00;51.50;;;;;;4343713;33;19989;-38
2021/09/25 02:38:57;;;;;;;;;;;16.10;51.20;;;;;;4343491;33;20041;-38
2021/09/25 02:41:24;;;;;;;;;;;16.10;51.20;;;;;;4329593;33;19994;-38
2021/09/25 02:43:50;;;;;;;;;;;16.20;51.10;;;;;;4343106;33;20545;-38
2021/09/25 02:46:16;;;;;;;;;;;16.30;50.90;;;;;;4330059;33;20022;-38
2021/09/25 02:48:42;;;;;;;;;;;16.30;50.80;;;;;;4350976;32;20049;-38
2021/09/25 02:51:09;;;;;;;;;;;16.30;50.60;;;;;;4357912;32;19982;-38
2021/09/25 02:53:35;;;;;;;;;;;16.40;50.70;;;;;;4357916;32;20048;-39
2021/09/25 02:56:01;;;;;;;;;;;16.40;50.70;;;;;;4357945;32;20124;-38
2021/09/25 02:58:27;;;;;;;;;;;16.40;50.70;;;;;;4344204;32;19967;-37
2021/09/25 03:00:53;;;;;;;;;;;16.40;50.60;;;;;;4357980;32;19985;-37
2021/09/25 03:03:20;;;;;;;;;;;16.50;50.50;;;;;;4358474;32;20051;-37
2021/09/25 03:05:46;;;;;;;;;;;16.60;50.40;;;;;;4358029;32;20399;-38
2021/09/25 03:08:12;;;;;;;;;;;16.60;50.20;;;;;;4358265;32;20001;-38
2021/09/25 03:10:38;;;;;;;;;;;16.70;50.20;;;;;;4358070;32;19970;-37
2021/09/25 03:13:04;;;;;;;;;;;16.80;50.00;;;;;;4358454;32;20391;-37
2021/09/25 03:15:31;;;;;;;;;;;17.00;49.60;;;;;;4358052;32;19978;-37
2021/09/25 03:17:57;;;;;;;;;;;17.00;49.10;;;;;;4357884;32;19976;-37
2021/09/25 03:20:23;;;;;;;;;;;17.10;48.90;;;;;;4358077;32;20411;-45
2021/09/25 03:22:49;;;;;;;;;;;17.20;48.70;;;;;;4357689;32;20475;-36
2021/09/25 03:25:15;;;;;;;;;;;17.20;48.80;;;;;;4357688;32;20046;-37
2021/09/25 03:27:42;;;;;;;;;;;17.30;48.80;;;;;;4358723;32;19966;-38
2021/09/25 03:30:09;;;;;;;;;;;17.30;48.60;;;;;;4360580;32;19974;-38
2021/09/25 03:32:35;;;;;;;;;;;17.30;48.30;;;;;;4360923;32;19966;-36
2021/09/25 03:35:01;;;;;;;;;;;17.30;48.30;;;;;;4360795;32;19967;-38
2021/09/25 03:37:27;;;;;;;;;;;17.40;48.50;;;;;;4360305;32;19986;-37
2021/09/25 03:39:53;;;;;;;;;;;17.40;48.50;;;;;;4360264;32;20055;-37
2021/09/25 03:42:20;;;;;;;;;;;17.50;48.70;;;;;;4360554;32;19970;-40
2021/09/25 03:44:46;;;;;;;;;;;17.60;48.90;;;;;;4360634;32;20082;-37
2021/09/25 03:47:12;;;;;;;;;;;17.60;48.60;;;;;;4360298;32;19962;-37
2021/09/25 03:49:38;;;;;;;;;;;17.70;48.50;;;;;;4346186;32;19975;-37
2021/09/25 03:52:05;;;;;;;;;;;17.80;48.00;;;;;;4345728;33;20044;-37
2021/09/25 03:54:33;;;;;;;;;;;17.90;47.50;;;;;;4345504;33;19967;-38
2021/09/25 03:56:59;;;;;;;;;;;18.00;46.90;;;;;;4331719;33;20002;-38
2021/09/25 03:59:28;;;;;;;;;;;18.10;46.50;;;;;;4345011;33;19975;-38
2021/09/25 04:01:54;;;;;;;;;;;18.20;46.20;;;;;;4345067;33;20394;-38
2021/09/25 04:04:20;;;;;;;;;;;18.30;46.10;;;;;;4345378;33;20396;-38
2021/09/25 04:06:46;;;;;;;;;;;18.40;45.90;;;;;;4344943;33;19979;-37
2021/09/25 04:09:12;;;;;;;;;;;18.50;45.50;;;;;;4344969;33;20345;-37
2021/09/25 04:11:39;;;;;;;;;;;18.60;45.50;;;;;;4345229;33;19977;-37
2021/09/25 04:14:05;;;;;;;;;;;18.70;45.40;;;;;;4345273;33;19967;-37
2021/09/25 04:16:31;;;;;;;;;;;18.80;45.40;;;;;;4327441;33;19986;-37
2021/09/25 04:18:57;;;;;;;;;;;18.90;45.20;;;;;;4327443;33;19983;-38
2021/09/25 04:21:23;;;;;;;;;;;19.00;44.90;;;;;;4327753;33;20524;-38
2021/09/25 04:23:49;;;;;;;;;;;19.10;44.80;;;;;;4327548;33;20037;-38
2021/09/25 04:26:16;;;;;;;;;;;19.20;45.10;;;;;;4327672;33;19986;-37
2021/09/25 04:28:42;;;;;;;;;;;19.40;45.30;;;;;;4327361;33;20099;-37
2021/09/25 04:31:08;;;;;;;;;;;19.60;45.10;;;;;;4315517;33;19998;-37
2021/09/25 04:33:35;;;;;;;;;;;19.80;44.60;;;;;;4327564;33;19963;-46
2021/09/25 04:36:01;;;;;;;;;;;19.90;43.70;;;;;;4327444;33;19991;-37
2021/09/25 04:38:27;;;;;;;;;;;20.00;43.50;;;;;;4327416;33;20026;-38
2021/09/25 04:40:53;;;;;;;;;;;20.10;43.30;;;;;;4327264;33;20407;-37
2021/09/25 04:43:19;;;;;;;;;;;20.20;42.90;;;;;;4327075;33;19975;-38
2021/09/25 04:45:46;;;;;;;;;;;20.30;42.80;;;;;;4327602;33;19990;-38
2021/09/25 04:48:15;;;;;;;;;;;20.40;42.30;;;;;;4331817;33;20417;-38
2021/09/25 04:50:41;;;;;;;;;;;20.50;41.90;;;;;;4341938;33;19967;-36
2021/09/25 04:53:08;;;;;;;;;;;20.50;41.80;;;;;;4344349;32;19966;-37
2021/09/25 04:55:35;;;;;;;;;;;20.60;42.00;;;;;;4359095;32;20429;-39
2021/09/25 04:58:02;;;;;;;;;;;20.80;42.10;;;;;;4359311;32;19982;-38
2021/09/25 05:00:31;;;;;;;;;;;21.00;42.40;;;;;;4359449;32;19969;-37
2021/09/25 05:02:58;;;;;;;;;;;21.20;41.70;;;;;;4359200;32;19963;-37
2021/09/25 05:05:24;;;;;;;;;;;21.40;40.60;;;;;;4359384;32;19965;-36
2021/09/25 05:07:50;;;;;;;;;;;21.50;40.00;;;;;;4358908;32;19966;-37
2021/09/25 05:10:16;;;;;;;;;;;21.50;39.50;;;;;;4359320;32;20402;-37
2021/09/25 05:12:43;;;;;;;;;;;21.50;39.20;;;;;;4359086;32;19993;-36
2021/09/25 05:15:10;;;;;;;;;;;21.60;39.00;;;;;;4358672;32;20452;-37
2021/09/25 05:17:36;;;;;;;;;;;21.60;39.00;;;;;;4359164;32;19989;-35
2021/09/25 05:20:04;;;;;;;;;;;21.70;39.00;;;;;;4358678;32;20056;-37
2021/09/25 05:22:30;;;;;;;;;;;21.80;39.50;;;;;;4358984;32;19974;-38
2021/09/25 05:24:56;;;;;;;;;;;21.90;38.70;;;;;;4359645;32;20055;-36
2021/09/25 05:27:22;;;;;;;;;;;21.90;38.50;;;;;;4358853;32;20051;-37
2021/09/25 05:29:49;;;;;;;;;;;22.00;38.50;;;;;;4358619;32;20379;-37
2021/09/25 05:32:15;;;;;;;;;;;22.10;38.40;;;;;;4358600;32;20046;-36
2021/09/25 05:34:42;;;;;;;;;;;22.20;38.20;;;;;;4358422;32;19973;-37
2021/09/25 05:37:11;;;;;;;;;;;22.40;38.10;;;;;;4358744;32;20028;-37
2021/09/25 05:39:38;;;;;;;;;;;22.50;37.90;;;;;;4358456;32;19970;-36
2021/09/25 05:42:04;;;;;;;;;;;22.60;38.50;;;;;;4358985;32;20063;-37
2021/09/25 05:44:31;;;;;;;;;;;22.70;37.60;;;;;;4358531;32;19997;-36
2021/09/25 05:46:57;;;;;;;;;;;22.70;37.50;;;;;;4358903;32;20073;-36
2021/09/25 05:49:23;;;;;;;;;;;22.80;37.70;;;;;;4346179;32;20408;-36
2021/09/25 05:51:50;;;;;;;;;;;22.90;37.80;;;;;;4342892;32;20128;-37
2021/09/25 05:54:16;;;;;;;;;;;23.00;37.30;;;;;;4343489;33;20030;-36
2021/09/25 05:56:43;;;;;;;;;;;23.20;37.00;;;;;;4343641;33;20042;-35
2021/09/25 05:59:09;;;;;;;;;;;23.30;37.20;;;;;;4343285;33;19974;-36
2021/09/25 06:01:36;;;;;;;;;;;23.50;37.40;;;;;;4343436;33;19998;-37
2021/09/25 06:04:03;;;;;;;;;;;23.90;37.50;;;;;;4343489;33;19975;-37
2021/09/25 06:06:29;;;;;;;;;;;24.20;37.20;;;;;;4343278;33;20015;-36
2021/09/25 06:08:55;;;;;;;;;;;24.40;37.10;;;;;;4343159;33;20404;-36
2021/09/25 06:11:21;;;;;;;;;;;24.60;35.60;;;;;;4305465;33;19989;-36
2021/09/25 06:13:50;;;;;;;;;;;24.70;34.70;;;;;;4343372;33;19974;-36
2021/09/25 06:16:16;;;;;;;;;;;24.70;35.10;;;;;;4343470;33;20017;-36
2021/09/25 06:18:42;;;;;;;;;;;24.80;35.20;;;;;;4343380;33;19994;-36
2021/09/25 06:21:08;;;;;;;;;;;24.80;35.10;;;;;;4343537;33;19965;-36
2021/09/25 06:23:34;;;;;;;;;;;24.90;35.50;;;;;;4343334;33;20407;-37
2021/09/25 06:26:01;;;;;;;;;;;25.10;35.50;;;;;;4343342;33;19990;-37
2021/09/25 06:28:27;;;;;;;;;;;25.30;35.30;;;;;;4343244;33;19966;-37
2021/09/25 06:30:53;;;;;;;;;;;25.60;35.00;;;;;;4343123;33;19993;-37
2021/09/25 06:33:19;;;;;;;;;;;25.70;34.80;;;;;;4343542;33;19967;-36
2021/09/25 06:35:46;;;;;;;;;;;25.80;34.20;;;;;;4343530;33;19979;-36
2021/09/25 06:38:12;;;;;;;;;;;25.80;34.00;;;;;;4343196;33;20079;-37
2021/09/25 06:40:38;;;;;;;;;;;25.90;33.70;;;;;;4342974;33;19975;-36
2021/09/25 06:43:04;;;;;;;;;;;25.90;32.90;;;;;;4343124;33;19966;-38
2021/09/25 06:45:32;;;;;;;;;;;25.80;32.80;;;;;;4317614;33;19990;-37
2021/09/25 06:47:59;;;;;;;;;;;25.70;33.20;;;;;;4333507;32;19958;-38
2021/09/25 06:50:25;;;;;;;;;;;25.70;32.80;;;;;;4358387;32;19982;-38
2021/09/25 06:52:51;;;;;;;;;;;25.70;32.90;;;;;;4357709;32;19970;-37
2021/09/25 06:55:18;;;;;;;;;;;25.70;32.90;;;;;;4358145;32;19964;-37
2021/09/25 06:57:44;;;;;;;;;;;25.60;32.60;;;;;;4358111;32;20387;-37
2021/09/25 07:00:11;;;;;;;;;;;25.60;32.60;;;;;;4358564;32;19970;-37
2021/09/25 07:02:40;;;;;;;;;;;25.50;32.80;;;;;;4344714;32;20009;-38
2021/09/25 07:05:07;;;;;;;;;;;25.40;33.10;;;;;;4360599;32;19970;-36
2021/09/25 07:07:33;;;;;;;;;;;25.50;32.80;;;;;;4361106;32;19985;-38
2021/09/25 07:09:59;;;;;;;;;;;25.40;33.00;;;;;;4360204;32;19962;-37
2021/09/25 07:12:25;;;;;;;;;;;25.40;33.00;;;;;;4360792;32;19990;-37
2021/09/25 07:14:52;;;;;;;;;;;25.50;32.90;;;;;;4360637;32;19975;-37
2021/09/25 07:17:18;;;;;;;;;;;25.50;32.60;;;;;;4360487;32;20509;-40
2021/09/25 07:19:44;;;;;;;;;;;25.50;32.80;;;;;;4360164;32;20013;-37
2021/09/25 07:22:11;;;;;;;;;;;25.50;32.80;;;;;;4360805;32;20143;-38
2021/09/25 07:24:38;;;;;;;;;;;25.60;32.60;;;;;;4360482;32;19969;-37
2021/09/25 07:27:04;;;;;;;;;;;25.60;32.00;;;;;;4360734;32;20411;-37
2021/09/25 07:29:30;;;;;;;;;;;25.60;32.10;;;;;;4360287;32;20426;-37
2021/09/25 07:31:56;;;;;;;;;;;25.70;32.40;;;;;;4360191;32;20009;-37
2021/09/25 07:34:23;;;;;;;;;;;25.80;32.00;;;;;;4360296;32;20406;-36
2021/09/25 07:36:49;;;;;;;;;;;25.80;32.20;;;;;;4360395;32;19994;-38
2021/09/25 07:39:15;;;;;;;;;;;25.80;31.90;;;;;;4346221;32;20381;-36
2021/09/25 07:41:41;;;;;;;;;;;25.80;32.00;;;;;;4360240;32;20387;-37
2021/09/25 07:44:07;;;;;;;;;;;25.90;32.20;;;;;;4312595;33;20018;-36
2021/09/25 07:46:34;;;;;;;;;;;25.90;32.00;;;;;;4313588;33;20043;-38
2021/09/25 07:49:00;;;;;;;;;;;25.90;31.90;;;;;;4303489;33;20361;-38
2021/09/25 07:51:27;;;;;;;;;;;25.80;32.00;;;;;;4298671;33;20641;-36
2021/09/25 07:53:53;;;;;;;;;;;25.80;32.20;;;;;;4299127;33;19967;-36
2021/09/25 07:56:20;;;;;;;;;;;25.70;32.10;;;;;;4299201;33;20006;-37
2021/09/25 07:58:46;;;;;;;;;;;25.50;32.40;;;;;;4298786;33;19994;-36
2021/09/25 08:01:12;;;;;;;;;;;25.50;32.70;;;;;;4298631;33;19968;-37
2021/09/25 08:03:39;;;;;;;;;;;25.60;33.10;;;;;;4298859;33;20003;-37
2021/09/25 08:06:05;;;;;;;;;;;25.60;33.00;;;;;;4298987;33;20025;-37
2021/09/25 08:08:32;;;;;;;;;;;25.60;32.70;;;;;;4298827;33;19979;-37
2021/09/25 08:10:58;;;;;;;;;;;25.50;32.60;;;;;;4286752;33;20010;-37
2021/09/25 08:13:24;;;;;;;;;;;25.40;32.80;;;;;;4297786;33;20090;-36
2021/09/25 08:15:50;;;;;;;;;;;25.30;33.00;;;;;;4335234;33;19967;-36
2021/09/25 08:18:17;;;;;;;;;;;25.30;33.20;;;;;;4344862;33;19981;-36
2021/09/25 08:20:43;;;;;;;;;;;25.30;33.40;;;;;;4344842;33;20039;-38
2021/09/25 08:23:10;;;;;;;;;;;25.20;33.20;;;;;;4344644;33;20109;-38
2021/09/25 08:25:36;;;;;;;;;;;25.20;33.30;;;;;;4344783;33;20009;-35
2021/09/25 08:28:02;;;;;;;;;;;25.20;33.40;;;;;;4344848;33;20423;-37
2021/09/25 08:30:29;;;;;;;;;;;25.30;33.20;;;;;;4330927;33;20415;-37
2021/09/25 08:32:57;;;;;;;;;;;25.20;33.20;;;;;;4344351;33;19971;-37
2021/09/25 08:35:23;;;;;;;;;;;25.20;33.10;;;;;;4344547;33;20073;-36
2021/09/25 08:37:49;;;;;;;;;;;25.10;33.10;;;;;;4331156;33;20379;-37
2021/09/25 08:40:19;;;;;;;;;;;25.10;32.70;;;;;;4344753;33;19971;-37
2021/09/25 08:42:45;;;;;;;;;;;25.10;32.80;;;;;;4344732;33;19958;-37
2021/09/25 08:45:11;;;;;;;;;;;25.10;33.10;;;;;;4344526;33;19971;-37
2021/09/25 08:47:38;;;;;;;;;;;25.20;33.00;;;;;;4344370;33;19970;-37
2021/09/25 08:50:04;;;;;;;;;;;25.30;33.00;;;;;;4344335;33;19978;-37
2021/09/25 08:52:31;;;;;;;;;;;25.30;32.70;;;;;;4330796;33;20002;-37
2021/09/25 08:54:57;;;;;;;;;;;25.40;32.30;;;;;;4344025;33;20505;-36
2021/09/25 08:57:23;;;;;;;;;;;25.30;32.40;;;;;;4344215;33;20442;-36
2021/09/25 08:59:49;;;;;;;;;;;25.30;32.20;;;;;;4344156;33;19965;-36
2021/09/25 09:02:19;;;;;;;;;;;25.30;31.80;;;;;;4344085;33;20022;-36
2021/09/25 09:04:53;;;;;;;;;;;25.30;32.20;;;;;;4343728;33;20339;-36
2021/09/25 09:07:27;;;;;;;;;;;25.40;32.30;;;;;;4344198;33;20374;-37
2021/09/25 09:09:54;;;;;;;;;;;25.50;32.40;;;;;;4344456;33;20079;-36
2021/09/25 09:12:21;;;;;;;;;;;25.60;32.10;;;;;;4344061;33;20002;-37
2021/09/25 09:14:48;;;;;;;;;;;25.60;31.60;;;;;;4343739;33;19973;-37
2021/09/25 09:17:22;;;;;;;;;;;25.60;31.40;;;;;;4343759;33;20398;-36
2021/09/25 09:19:48;;;;;;;;;;;25.60;31.30;;;;;;4344217;33;20022;-36
2021/09/25 09:22:19;;;;;;;;;;;25.50;31.60;;;;;;4343583;33;19993;-36
2021/09/25 09:24:47;;;;;;;;;;;25.30;31.80;;;;;;4343725;32;20442;-36
2021/09/25 09:27:15;;;;;;;;;;;25.30;32.20;;;;;;4344157;33;19970;-36
2021/09/25 09:29:46;;;;;;;;;;;25.20;32.30;;;;;;4343964;33;20384;-36
2021/09/25 09:32:13;;;;;;;;;;;25.10;32.70;;;;;;4344168;33;19971;-36
2021/09/25 09:34:41;;;;;;;;;;;25.00;32.90;;;;;;4343784;33;20521;-36
2021/09/25 09:37:13;;;;;;;;;;;25.10;33.30;;;;;;4344370;33;19990;-36
2021/09/25 09:39:39;;;;;;;;;;;25.10;33.30;;;;;;4344067;33;19970;-36
2021/09/25 09:42:05;;;;;;;;;;;25.20;33.30;;;;;;4343359;33;19986;-37
2021/09/25 09:44:33;;;;;;;;;;;25.10;33.10;;;;;;4343598;33;20403;-36
2021/09/25 09:47:07;;;;;;;;;;;24.90;33.50;;;;;;4329984;33;20479;-37
2021/09/25 09:49:42;;;;;;;;;;;24.70;33.80;;;;;;4343592;33;20162;-37
2021/09/25 09:52:13;;;;;;;;;;;24.50;34.10;;;;;;4343432;32;19958;-37
2021/09/25 09:54:43;;;;;;;;;;;24.30;34.30;;;;;;4343687;32;20041;-36
2021/09/25 09:57:11;;;;;;;;;;;24.10;34.60;;;;;;4343570;32;19990;-37
2021/09/25 09:59:38;;;;;;;;;;;23.90;35.00;;;;;;4343036;32;20363;-36
2021/09/25 10:02:05;;;;;;;;;;;23.80;35.30;;;;;;4343510;32;19991;-36
2021/09/25 10:04:32;;;;;;;;;;;23.70;35.40;;;;;;4341449;33;20372;-36
2021/09/25 10:06:58;;;;;;;;;;;23.70;35.40;;;;;;4341719;33;19997;-37
2021/09/25 10:09:26;;;;;;;;;;;23.70;35.40;;;;;;4326179;33;19979;-37
2021/09/25 10:12:00;;;;;;;;;;;23.70;35.50;;;;;;4326573;33;20066;-36
2021/09/25 10:14:29;;;;;;;;;;;23.90;35.60;;;;;;4325864;33;19964;-36
2021/09/25 10:16:56;;;;;;;;;;;24.00;35.20;;;;;;4326481;33;20046;-37
2021/09/25 10:19:30;;;;;;;;;;;24.10;34.80;;;;;;4326340;33;20067;-37
2021/09/25 10:22:04;;;;;;;;;;;24.20;34.80;;;;;;4326621;33;19971;-38
2021/09/25 10:24:52;;;;;;;;;;;24.30;34.60;;;;;;4326265;33;19971;-36
2021/09/25 10:27:18;;;;;;;;;;;24.30;34.50;;;;;;4313590;33;20038;-38
2021/09/25 10:29:47;;;;;;;;;;;24.30;34.30;;;;;;4313621;33;20083;-37
2021/09/25 10:32:24;;;;;;;;;;;24.30;34.20;;;;;;4326119;33;19966;-37
2021/09/25 10:35:04;;;;;;;;;;;24.30;34.40;;;;;;4326218;33;20073;-37
2021/09/25 10:37:33;;;;;;;;;;;24.30;34.10;;;;;;4328207;33;19974;-37
2021/09/25 10:39:59;;;;;;;;;;;24.20;34.10;;;;;;4334493;33;20428;-37
2021/09/25 10:43:04;;;;;;;;;;;24.00;34.00;;;;;;4345810;32;20013;-37
2021/09/25 10:45:37;;;;;;;;;;;23.90;34.40;;;;;;4285438;33;19983;-36
2021/09/25 10:48:05;;;;;;;;;;;23.80;34.60;;;;;;4281043;33;20362;-36
2021/09/25 10:50:33;;;;;;;;;;;23.80;34.60;;;;;;4270735;33;20445;-36
2021/09/25 10:53:37;;;;;;;;;;;23.80;34.50;;;;;;4270649;33;20047;-36
2021/09/25 10:56:05;;;;;;;;;;;23.80;34.10;;;;;;4266284;33;19976;-37
2021/09/25 10:58:38;;;;;;;;;;;23.70;34.30;;;;;;4270891;33;20067;-38
2021/09/25 11:01:15;;;;;;;;;;;23.80;34.40;;;;;;4270902;33;20043;-37
2021/09/25 11:06:08;;;;;;;;;;;23.80;33.60;;;;;;4270721;33;20070;-37
2021/09/25 11:08:35;;;;;;;;;;;23.80;33.80;;;;;;4270664;33;19964;-37
2021/09/25 11:11:08;;;;;;;;;;;23.80;33.90;;;;;;4270554;33;19984;-38
2021/09/25 11:13:59;;;;;;;;;;;23.90;34.10;;;;;;4258622;33;20027;-37
2021/09/25 11:16:44;;;;;;;;;;;24.00;34.10;;;;;;4270641;33;19980;-37
2021/09/25 11:19:35;;;;;;;;;;;24.10;34.00;;;;;;4271982;33;20067;-37
2021/09/25 11:22:16;;;;;;;;;;;24.20;33.90;;;;;;4327337;33;20019;-37
2021/09/25 11:24:42;;;;;;;;;;;24.20;33.50;;;;;;4330789;33;20521;-36
2021/09/25 11:27:11;;;;;;;;;;;24.20;33.60;;;;;;4330669;33;19978;-38
2021/09/25 11:30:03;;;;;;;;;;;24.10;33.70;;;;;;4330811;33;20042;-37
2021/09/25 11:32:31;;;;;;;;;;;24.00;33.70;;;;;;4326068;33;19963;-37
2021/09/25 11:34:58;;;;;;;;;;;23.90;34.00;;;;;;4329522;33;19993;-38
2021/09/25 11:37:25;;;;;;;;;;;23.70;34.00;;;;;;4330325;33;20049;-38
2021/09/25 11:39:52;;;;;;;;;;;23.50;34.20;;;;;;4330991;33;19979;-37
2021/09/25 11:42:31;;;;;;;;;;;23.30;34.30;;;;;;4330677;33;19975;-38
2021/09/25 11:45:04;;;;;;;;;;;23.20;34.50;;;;;;4330843;33;19967;-39
2021/09/25 11:47:33;;;;;;;;;;;23.00;34.70;;;;;;4327208;33;20119;-38
2021/09/25 11:50:10;;;;;;;;;;;22.90;34.70;;;;;;4327433;33;19975;-37
2021/09/25 11:52:36;;;;;;;;;;;22.80;34.80;;;;;;4328164;33;19979;-37
2021/09/25 11:55:03;;;;;;;;;;;22.60;35.00;;;;;;4327960;33;20432;-38
2021/09/25 11:57:30;;;;;;;;;;;22.50;35.20;;;;;;4327563;33;20098;-38
2021/09/25 11:59:56;;;;;;;;;;;22.40;35.20;;;;;;4327741;33;19979;-38
2021/09/25 12:02:39;;;;;;;;;;;22.30;35.30;;;;;;4297849;33;20010;-38
2021/09/25 12:05:06;;;;;;;;;;;22.20;35.60;;;;;;4286532;33;19971;-38
2021/09/25 12:07:42;;;;;;;;;;;22.20;35.80;;;;;;4298109;33;19978;-37
2021/09/25 12:10:16;;;;;;;;;;;22.20;35.80;;;;;;4298242;33;19978;-38
2021/09/25 12:12:42;;;;;;;;;;;22.20;35.80;;;;;;4298276;33;20603;-39
2021/09/25 12:15:09;;;;;;;;;;;22.30;35.70;;;;;;4297994;33;20453;-37
2021/09/25 12:17:35;;;;;;;;;;;22.30;35.70;;;;;;4299805;33;20398;-38
2021/09/25 12:20:17;;;;;;;;;;;22.40;35.90;;;;;;4319064;33;19990;-38
2021/09/25 12:22:45;;;;;;;;;;;22.50;35.90;;;;;;4327388;33;20519;-38
2021/09/25 12:25:12;;;;;;;;;;;22.60;35.80;;;;;;4315358;33;20065;-38
2021/09/25 12:27:44;;;;;;;;;;;22.80;35.70;;;;;;4327473;33;19986;-39
2021/09/25 12:30:11;;;;;;;;;;;22.90;35.50;;;;;;4327008;33;20428;-39
2021/09/25 12:32:40;;;;;;;;;;;23.00;35.00;;;;;;4327125;33;20353;-39
2021/09/25 12:35:19;;;;;;;;;;;23.00;35.00;;;;;;4315028;33;20064;-37
2021/09/25 12:37:47;;;;;;;;;;;23.00;35.10;;;;;;4327123;33;20495;-39
2021/09/25 12:40:13;;;;;;;;;;;23.00;35.30;;;;;;4338779;33;20002;-38
2021/09/25 12:42:40;;;;;;;;;;;23.10;35.40;;;;;;4343929;33;19993;-39
2021/09/25 12:45:08;;;;;;;;;;;23.10;35.10;;;;;;4318579;33;20467;-38
2021/09/25 12:47:35;;;;;;;;;;;23.10;35.00;;;;;;4317676;33;20356;-38
2021/09/25 12:50:18;;;;;;;;;;;23.20;35.10;;;;;;4329316;33;20317;-39
2021/09/25 12:52:45;;;;;;;;;;;23.10;35.10;;;;;;4329778;33;19995;-38
2021/09/25 12:55:11;;;;;;;;;;;23.00;35.30;;;;;;4329350;33;20053;-38
2021/09/25 12:57:37;;;;;;;;;;;23.00;35.50;;;;;;4329185;33;19994;-38
2021/09/25 13:00:08;;;;;;;;;;;22.90;35.60;;;;;;4329833;33;20392;-38
2021/09/25 13:02:34;;;;;;;;;;;22.90;35.80;;;;;;4329478;33;19982;-38
2021/09/25 13:05:06;;;;;;;;;;;22.80;35.80;;;;;;4329643;33;20066;-38
2021/09/25 13:07:34;;;;;;;;;;;22.70;36.00;;;;;;4329622;33;19971;-38
2021/09/25 13:10:05;;;;;;;;;;;22.60;36.20;;;;;;4329103;33;19971;-38
2021/09/25 13:12:35;;;;;;;;;;;22.50;36.50;;;;;;4315665;33;19979;-38
2021/09/25 13:15:09;;;;;;;;;;;22.40;36.80;;;;;;4329519;33;19974;-38
2021/09/25 13:17:39;;;;;;;;;;;22.30;37.00;;;;;;4315563;33;20040;-39
2021/09/25 13:20:07;;;;;;;;;;;22.20;37.20;;;;;;4336183;33;20002;-38
2021/09/25 13:22:34;;;;;;;;;;;22.10;37.30;;;;;;4343399;33;20005;-39
2021/09/25 13:25:00;;;;;;;;;;;22.10;37.70;;;;;;4343800;33;19974;-38
2021/09/25 13:27:27;;;;;;;;;;;21.80;37.80;;;;;;4344130;33;20058;-38
2021/09/25 13:29:54;;;;;;;;;;;21.70;38.30;;;;;;4344308;33;19967;-38
2021/09/25 13:32:21;;;;;;;;;;;21.60;38.60;;;;;;4343706;33;19970;-38
2021/09/25 13:34:47;;;;;;;;;;;21.50;39.00;;;;;;4343732;33;20410;-39
2021/09/25 13:37:13;;;;;;;;;;;21.40;39.20;;;;;;4343662;33;19966;-38
2021/09/25 13:39:40;;;;;;;;;;;21.40;39.50;;;;;;4311510;33;19988;-37
2021/09/25 13:42:06;;;;;;;;;;;21.30;39.70;;;;;;4299833;33;20458;-39
2021/09/25 13:44:32;;;;;;;;;;;21.20;39.80;;;;;;4311552;33;19963;-38
2021/09/25 13:46:59;;;;;;;;;;;21.10;40.00;;;;;;4312033;33;20093;-39
2021/09/25 13:49:25;;;;;;;;;;;21.10;40.20;;;;;;4311785;33;19987;-38
2021/09/25 13:51:51;;;;;;;;;;;21.00;40.30;;;;;;4311654;33;19975;-38
2021/09/25 13:54:18;;;;;;;;;;;21.00;40.40;;;;;;4311913;33;20115;-39
2021/09/25 13:56:44;;;;;;;;;;;21.00;40.40;;;;;;4311647;33;20440;-38
2021/09/25 13:59:10;;;;;;;;;;;21.10;40.40;;;;;;4299183;33;20157;-38
2021/09/25 14:01:36;;;;;;;;;;;21.20;40.20;;;;;;4299459;33;20009;-38
2021/09/25 14:04:02;;;;;;;;;;;21.40;40.10;;;;;;4311390;33;19969;-38
2021/09/25 14:06:29;;;;;;;;;;;21.40;39.80;;;;;;4311425;33;20445;-38
2021/09/25 14:08:55;;;;;;;;;;;21.50;39.60;;;;;;4312240;33;19978;-38
2021/09/25 14:11:21;;;;;;;;;;;21.60;39.50;;;;;;4310794;33;19975;-38
2021/09/25 14:13:47;;;;;;;;;;;21.50;39.10;;;;;;4311258;33;20498;-37
2021/09/25 14:16:13;;;;;;;;;;;21.50;39.00;;;;;;4315705;33;20002;-38
2021/09/25 14:18:41;;;;;;;;;;;21.40;38.80;;;;;;4343278;33;20355;-39
2021/09/25 14:21:09;;;;;;;;;;;21.40;38.90;;;;;;4329613;33;20030;-39
2021/09/25 14:23:35;;;;;;;;;;;21.30;39.10;;;;;;4343614;33;20033;-38